Time;durP1;ratioP1;P1;durP2;ratioP2;P2;SDS_P1;SDS_P2;PMS_P1;PMS_P2;Temp;Humidity;BMP_temperature;BMP_pressure;BME280_temperature;BME280_humidity;BME280_pressure;Samples;Min_cycle;Max_cycle;Signal;HPM_P1;HPM_P2
2022/05/14 00:01:36;;;;;;;10.53;3.60;;;;;;;;;;4986642;28;20197;-72
2022/05/14 00:04:02;;;;;;;8.47;3.20;;;;;;;;;;4986586;28;20718;-71
2022/05/14 00:06:28;;;;;;;5.27;3.30;;;;;;;;;;4987882;28;20189;-71
2022/05/14 00:08:54;;;;;;;4.73;3.13;;;;;;;;;;4984108;28;20691;-71
2022/05/14 00:14:05;;;;;;;8.53;3.27;;;;;;;;;;4997769;28;20562;-71
2022/05/14 00:16:32;;;;;;;5.90;3.13;;;;;;;;;;4975095;28;20193;-71
2022/05/14 00:18:58;;;;;;;8.33;3.47;;;;;;;;;;4991496;28;20192;-71
2022/05/14 00:21:24;;;;;;;6.83;3.27;;;;;;;;;;4988150;28;20205;-70
2022/05/14 00:23:50;;;;;;;5.17;3.10;;;;;;;;;;4987755;28;20190;-71
2022/05/14 00:26:16;;;;;;;5.77;3.30;;;;;;;;;;4991357;28;20186;-71
2022/05/14 00:28:42;;;;;;;7.63;3.30;;;;;;;;;;4990946;28;20691;-71
2022/05/14 00:31:09;;;;;;;6.13;3.27;;;;;;;;;;4991769;28;20211;-71
2022/05/14 00:33:35;;;;;;;5.70;2.90;;;;;;;;;;4998215;28;20191;-71
2022/05/14 00:36:01;;;;;;;6.10;3.50;;;;;;;;;;4993239;28;20193;-71
2022/05/14 00:38:27;;;;;;;7.57;3.27;;;;;;;;;;4991867;28;20204;-71
2022/05/14 00:41:00;;;;;;;5.37;3.17;;;;;;;;;;5000194;28;20296;-72
2022/05/14 00:43:26;;;;;;;9.23;3.17;;;;;;;;;;4993687;28;20276;-71
2022/05/14 00:45:54;;;;;;;8.00;3.60;;;;;;;;;;4987850;28;20201;-71
2022/05/14 00:48:20;;;;;;;8.57;3.37;;;;;;;;;;4989843;28;20182;-71
2022/05/14 00:50:50;;;;;;;6.03;2.93;;;;;;;;;;4993156;28;20217;-71
2022/05/14 00:53:17;;;;;;;6.77;3.20;;;;;;;;;;4989105;28;20193;-71
2022/05/14 00:55:44;;;;;;;9.53;3.47;;;;;;;;;;4985568;28;20201;-71
2022/05/14 00:58:10;;;;;;;5.17;3.07;;;;;;;;;;4971554;28;20186;-71
2022/05/14 01:00:37;;;;;;;4.33;2.90;;;;;;;;;;4979214;28;20220;-70
2022/05/14 01:03:03;;;;;;;7.37;3.40;;;;;;;;;;4985909;28;20217;-71
2022/05/14 01:05:30;;;;;;;5.60;2.93;;;;;;;;;;4993805;28;20885;-71
2022/05/14 01:07:56;;;;;;;5.73;3.27;;;;;;;;;;4990706;28;20196;-71
2022/05/14 01:10:22;;;;;;;6.33;3.27;;;;;;;;;;4989076;28;20704;-71
2022/05/14 01:12:50;;;;;;;8.47;2.93;;;;;;;;;;4982698;28;20727;-70
2022/05/14 01:15:18;;;;;;;7.20;3.20;;;;;;;;;;4978551;28;20731;-71
2022/05/14 01:17:44;;;;;;;6.97;3.00;;;;;;;;;;4987835;28;20189;-70
2022/05/14 01:20:11;;;;;;;6.03;2.73;;;;;;;;;;4990844;28;20182;-71
2022/05/14 01:22:49;;;;;;;7.63;3.43;;;;;;;;;;4987915;28;20198;-72
2022/05/14 01:28:00;;;;;;;6.47;3.30;;;;;;;;;;4992404;28;20800;-70
2022/05/14 01:30:26;;;;;;;6.63;3.40;;;;;;;;;;4992985;28;20214;-71
2022/05/14 01:33:04;;;;;;;7.63;3.53;;;;;;;;;;4991131;28;25876;-70
2022/05/14 01:35:32;;;;;;;5.93;3.23;;;;;;;;;;4997048;28;20205;-71
2022/05/14 01:37:57;;;;;;;5.77;2.70;;;;;;;;;;4988598;28;20190;-70
2022/05/14 01:40:23;;;;;;;8.63;3.77;;;;;;;;;;4996091;28;20209;-71
2022/05/14 01:42:49;;;;;;;7.83;3.10;;;;;;;;;;4992053;28;20186;-71
2022/05/14 01:45:15;;;;;;;5.27;2.90;;;;;;;;;;4990812;28;20192;-71
2022/05/14 01:47:41;;;;;;;4.23;2.77;;;;;;;;;;4994236;28;20296;-71
2022/05/14 01:50:07;;;;;;;5.60;2.90;;;;;;;;;;4990941;28;20345;-71
2022/05/14 01:52:34;;;;;;;4.50;2.77;;;;;;;;;;4987692;28;20190;-71
2022/05/14 01:55:00;;;;;;;5.00;2.73;;;;;;;;;;4990716;28;20339;-70
2022/05/14 01:57:26;;;;;;;6.17;2.60;;;;;;;;;;4996013;28;20185;-72
2022/05/14 01:59:52;;;;;;;5.63;3.80;;;;;;;;;;4994642;28;20280;-71
2022/05/14 02:02:18;;;;;;;3.40;2.60;;;;;;;;;;4996629;28;20694;-71
2022/05/14 02:04:43;;;;;;;3.73;2.67;;;;;;;;;;4991749;28;20264;-71
2022/05/14 02:07:09;;;;;;;3.77;2.77;;;;;;;;;;4988353;28;20277;-71
2022/05/14 02:09:35;;;;;;;4.90;2.43;;;;;;;;;;4997617;28;20200;-71
2022/05/14 02:12:02;;;;;;;5.03;2.70;;;;;;;;;;4996448;28;21124;-71
2022/05/14 02:14:28;;;;;;;4.70;2.67;;;;;;;;;;4997852;28;20599;-72
2022/05/14 02:16:54;;;;;;;7.43;3.80;;;;;;;;;;4995997;28;20182;-71
2022/05/14 02:19:20;;;;;;;8.30;3.37;;;;;;;;;;4994298;28;21689;-71
2022/05/14 02:21:46;;;;;;;5.37;2.80;;;;;;;;;;4995323;28;20194;-71
2022/05/14 02:24:12;;;;;;;4.40;3.37;;;;;;;;;;4991142;28;20284;-71
2022/05/14 02:26:38;;;;;;;4.90;2.67;;;;;;;;;;4994270;28;20235;-71
2022/05/14 02:29:04;;;;;;;3.47;2.57;;;;;;;;;;4998112;28;20297;-71
2022/05/14 02:31:31;;;;;;;3.40;2.73;;;;;;;;;;4991448;28;20553;-71
2022/05/14 02:33:57;;;;;;;4.43;2.77;;;;;;;;;;4995790;28;20197;-71
2022/05/14 02:36:23;;;;;;;7.97;3.03;;;;;;;;;;4994154;28;20179;-71
2022/05/14 02:38:49;;;;;;;5.53;2.80;;;;;;;;;;4991501;28;20197;-71
2022/05/14 02:41:15;;;;;;;8.33;2.97;;;;;;;;;;4991362;28;20664;-71
2022/05/14 02:43:41;;;;;;;5.70;2.60;;;;;;;;;;4991954;28;20648;-71
2022/05/14 02:46:07;;;;;;;10.73;2.60;;;;;;;;;;4991447;28;20675;-71
2022/05/14 02:48:33;;;;;;;4.77;2.40;;;;;;;;;;4994268;28;20247;-71
2022/05/14 02:50:59;;;;;;;6.03;2.30;;;;;;;;;;4993820;28;20260;-71
2022/05/14 02:53:25;;;;;;;4.67;2.43;;;;;;;;;;4994596;28;20635;-71
2022/05/14 02:55:51;;;;;;;6.13;2.50;;;;;;;;;;4993740;28;20189;-70
2022/05/14 02:59:06;;;;;;;4.83;2.40;;;;;;;;;;4995395;28;20190;-72
2022/05/14 03:01:03;;;;;;;5.77;2.60;;;;;;;;;;4987832;28;20212;-71
2022/05/14 03:03:29;;;;;;;7.30;2.63;;;;;;;;;;4992335;28;20233;-71
2022/05/14 03:05:55;;;;;;;7.13;2.30;;;;;;;;;;4994009;28;20194;-71
2022/05/14 03:08:21;;;;;;;5.60;2.80;;;;;;;;;;4985132;28;20693;-71
2022/05/14 03:10:47;;;;;;;6.30;2.60;;;;;;;;;;4999166;28;20209;-71
2022/05/14 03:13:13;;;;;;;6.87;2.63;;;;;;;;;;4966401;28;20208;-71
2022/05/14 03:15:39;;;;;;;5.30;2.40;;;;;;;;;;4968748;28;20272;-70
2022/05/14 03:18:05;;;;;;;5.83;2.60;;;;;;;;;;4987564;28;20214;-70
2022/05/14 03:20:31;;;;;;;5.33;2.43;;;;;;;;;;4986158;28;20326;-70
2022/05/14 03:22:56;;;;;;;4.60;2.50;;;;;;;;;;4994094;28;20201;-70
2022/05/14 03:25:22;;;;;;;4.53;2.30;;;;;;;;;;4985086;28;20197;-71
2022/05/14 03:27:48;;;;;;;2.63;2.10;;;;;;;;;;4992269;28;20197;-71
2022/05/14 03:30:15;;;;;;;4.83;2.20;;;;;;;;;;4995384;28;21117;-71
2022/05/14 03:32:41;;;;;;;5.40;2.20;;;;;;;;;;4994388;28;20216;-71
2022/05/14 03:35:08;;;;;;;4.83;2.63;;;;;;;;;;4991429;28;20189;-71
2022/05/14 03:37:35;;;;;;;5.63;2.10;;;;;;;;;;4994102;28;20193;-71
2022/05/14 03:40:01;;;;;;;4.90;2.40;;;;;;;;;;5003449;28;20189;-71
2022/05/14 03:42:27;;;;;;;5.00;2.47;;;;;;;;;;4995555;28;20244;-71
2022/05/14 03:44:53;;;;;;;7.90;2.80;;;;;;;;;;4995428;28;20194;-71
2022/05/14 03:47:19;;;;;;;5.63;2.30;;;;;;;;;;4992753;28;20205;-71
2022/05/14 03:49:45;;;;;;;2.97;2.50;;;;;;;;;;4992662;28;21148;-71
2022/05/14 03:52:11;;;;;;;4.40;2.13;;;;;;;;;;4994494;28;20209;-71
2022/05/14 03:54:38;;;;;;;3.77;2.30;;;;;;;;;;4989201;28;20190;-71
2022/05/14 03:57:05;;;;;;;5.20;2.20;;;;;;;;;;4994552;28;20671;-70
2022/05/14 03:59:31;;;;;;;4.83;2.63;;;;;;;;;;4993429;28;20197;-70
2022/05/14 04:01:57;;;;;;;3.87;2.20;;;;;;;;;;4990210;28;20602;-71
2022/05/14 04:04:23;;;;;;;4.03;2.20;;;;;;;;;;4990615;28;20375;-71
2022/05/14 04:06:49;;;;;;;6.47;2.30;;;;;;;;;;4992214;28;20189;-71
2022/05/14 04:09:15;;;;;;;4.77;2.10;;;;;;;;;;4992224;28;20251;-71
2022/05/14 04:11:40;;;;;;;4.00;2.20;;;;;;;;;;4986370;28;20217;-70
2022/05/14 04:14:07;;;;;;;7.20;2.40;;;;;;;;;;4986948;28;20190;-69
2022/05/14 04:16:33;;;;;;;7.63;2.57;;;;;;;;;;4989735;28;20186;-71
2022/05/14 04:18:59;;;;;;;8.53;2.77;;;;;;;;;;4991064;28;20311;-70
2022/05/14 04:21:25;;;;;;;5.33;2.40;;;;;;;;;;4979732;28;20562;-70
2022/05/14 04:23:52;;;;;;;4.27;2.20;;;;;;;;;;4981599;28;20628;-70
2022/05/14 04:26:22;;;;;;;3.27;1.93;;;;;;;;;;4999433;28;20193;-70
2022/05/14 04:28:48;;;;;;;4.07;2.40;;;;;;;;;;4990448;28;20676;-70
2022/05/14 04:31:14;;;;;;;6.77;2.20;;;;;;;;;;4987598;28;20229;-70
2022/05/14 04:33:40;;;;;;;7.23;2.40;;;;;;;;;;4992231;28;20193;-71
2022/05/14 04:36:06;;;;;;;6.70;2.33;;;;;;;;;;4986153;28;20179;-71
2022/05/14 04:38:32;;;;;;;6.23;2.33;;;;;;;;;;4972414;28;20279;-71
2022/05/14 04:40:58;;;;;;;3.37;1.90;;;;;;;;;;4989369;28;20272;-72
2022/05/14 04:43:24;;;;;;;4.57;2.10;;;;;;;;;;4993406;28;20679;-71
2022/05/14 04:45:50;;;;;;;6.57;2.30;;;;;;;;;;4990124;28;20194;-70
2022/05/14 04:48:16;;;;;;;3.93;2.20;;;;;;;;;;4991574;28;20243;-70
2022/05/14 04:50:42;;;;;;;7.33;2.43;;;;;;;;;;4993385;28;20626;-70
2022/05/14 04:53:08;;;;;;;3.90;2.20;;;;;;;;;;4994628;28;20644;-70
2022/05/14 04:55:34;;;;;;;5.30;2.40;;;;;;;;;;4986038;28;20186;-70
2022/05/14 04:58:00;;;;;;;5.60;2.10;;;;;;;;;;4986603;28;20324;-71
2022/05/14 05:00:26;;;;;;;4.93;2.40;;;;;;;;;;4990118;28;20289;-70
2022/05/14 05:05:38;;;;;;;7.40;2.40;;;;;;;;;;4991881;28;20732;-71
2022/05/14 05:08:04;;;;;;;5.43;2.27;;;;;;;;;;4989076;28;20191;-70
2022/05/14 05:10:30;;;;;;;3.70;1.73;;;;;;;;;;4993291;28;20260;-70
2022/05/14 05:12:56;;;;;;;4.53;2.00;;;;;;;;;;4990810;28;20181;-71
2022/05/14 05:15:22;;;;;;;5.83;2.10;;;;;;;;;;4985514;28;20194;-71
2022/05/14 05:17:49;;;;;;;5.23;2.63;;;;;;;;;;4984779;28;20202;-71
2022/05/14 05:20:15;;;;;;;5.63;2.37;;;;;;;;;;4986717;28;20550;-71
2022/05/14 05:22:41;;;;;;;5.30;1.97;;;;;;;;;;4985895;28;20683;-70
2022/05/14 05:25:07;;;;;;;4.33;2.10;;;;;;;;;;4983051;28;20198;-70
2022/05/14 05:27:33;;;;;;;4.67;2.60;;;;;;;;;;4982302;28;20248;-70
2022/05/14 05:29:59;;;;;;;4.80;2.17;;;;;;;;;;4988421;28;20568;-71
2022/05/14 05:32:25;;;;;;;7.53;2.30;;;;;;;;;;4993551;28;20190;-71
2022/05/14 05:34:51;;;;;;;5.87;2.30;;;;;;;;;;4985009;28;20225;-71
2022/05/14 05:37:17;;;;;;;4.13;1.57;;;;;;;;;;4988746;28;20652;-70
2022/05/14 05:39:43;;;;;;;3.63;1.90;;;;;;;;;;4982953;28;20198;-70
2022/05/14 05:42:09;;;;;;;6.17;2.13;;;;;;;;;;4980883;28;22776;-71
2022/05/14 05:44:35;;;;;;;5.30;2.20;;;;;;;;;;4979570;28;20186;-71
2022/05/14 05:47:04;;;;;;;3.57;2.00;;;;;;;;;;4984869;28;20965;-71
2022/05/14 05:49:30;;;;;;;3.10;1.60;;;;;;;;;;4988585;28;20190;-71
2022/05/14 05:51:55;;;;;;;8.77;2.10;;;;;;;;;;4995677;28;20755;-70
2022/05/14 05:57:06;;;;;;;5.97;2.10;;;;;;;;;;4990188;28;20193;-71
2022/05/14 05:59:33;;;;;;;2.77;1.90;;;;;;;;;;4986250;28;20318;-70
2022/05/14 06:01:58;;;;;;;6.10;1.80;;;;;;;;;;4984994;28;20206;-70
2022/05/14 06:04:24;;;;;;;2.70;2.00;;;;;;;;;;4975344;28;20233;-70
2022/05/14 06:06:50;;;;;;;5.17;2.00;;;;;;;;;;4987747;28;20196;-69
2022/05/14 06:09:17;;;;;;;4.70;2.07;;;;;;;;;;4993127;28;20288;-70
2022/05/14 06:11:44;;;;;;;3.27;1.97;;;;;;;;;;4973068;28;20198;-71
2022/05/14 06:14:10;;;;;;;5.50;2.17;;;;;;;;;;4993450;28;27364;-71
2022/05/14 06:16:36;;;;;;;4.57;2.20;;;;;;;;;;4989339;28;20182;-70
2022/05/14 06:19:02;;;;;;;4.47;2.37;;;;;;;;;;4986449;28;20186;-70
2022/05/14 06:21:28;;;;;;;5.37;2.07;;;;;;;;;;4991549;28;20194;-71
2022/05/14 06:23:54;;;;;;;5.23;2.30;;;;;;;;;;4989203;28;20198;-70
2022/05/14 06:26:20;;;;;;;4.13;2.27;;;;;;;;;;4990131;28;20197;-70
2022/05/14 06:28:46;;;;;;;4.70;2.00;;;;;;;;;;4990310;28;21063;-71
2022/05/14 06:31:12;;;;;;;8.57;2.63;;;;;;;;;;4994007;28;20710;-71
2022/05/14 06:33:38;;;;;;;3.70;2.10;;;;;;;;;;4991111;28;20195;-71
2022/05/14 06:36:04;;;;;;;5.10;2.50;;;;;;;;;;4986772;28;20186;-71
2022/05/14 06:38:30;;;;;;;7.23;2.70;;;;;;;;;;4987982;28;20199;-71
2022/05/14 06:40:56;;;;;;;6.03;2.47;;;;;;;;;;4990550;28;20197;-71
2022/05/14 06:43:22;;;;;;;7.67;2.60;;;;;;;;;;4987308;28;20189;-71
2022/05/14 06:45:48;;;;;;;4.97;2.60;;;;;;;;;;4991204;28;20190;-71
2022/05/14 06:48:14;;;;;;;5.27;2.40;;;;;;;;;;4995442;28;20196;-71
2022/05/14 06:50:49;;;;;;;8.20;2.73;;;;;;;;;;4980604;28;20572;-71
2022/05/14 06:53:15;;;;;;;8.27;2.67;;;;;;;;;;4980978;28;20224;-71
2022/05/14 06:55:42;;;;;;;6.87;2.40;;;;;;;;;;4983792;28;20628;-72
2022/05/14 06:58:09;;;;;;;4.67;2.33;;;;;;;;;;4982511;28;20209;-70
2022/05/14 07:00:35;;;;;;;10.07;2.70;;;;;;;;;;4993955;28;21045;-71
2022/05/14 07:08:30;;;;;;;5.90;2.57;;;;;;;;;;4987869;28;21120;-76
2022/05/14 07:10:55;;;;;;;7.87;2.57;;;;;;;;;;4988483;28;20320;-75
2022/05/14 07:13:21;;;;;;;5.23;2.53;;;;;;;;;;4986861;28;20192;-73
2022/05/14 07:15:47;;;;;;;5.17;2.30;;;;;;;;;;4990744;28;20186;-72
2022/05/14 07:18:13;;;;;;;8.40;2.93;;;;;;;;;;4981344;28;20201;-70
2022/05/14 07:20:39;;;;;;;7.40;2.63;;;;;;;;;;4982646;28;20194;-71
2022/05/14 07:23:05;;;;;;;5.55;2.60;;;;;;;;;;4985595;28;20201;-71
2022/05/14 07:25:32;;;;;;;8.75;2.80;;;;;;;;;;4982560;28;20186;-71
2022/05/14 07:27:58;;;;;;;6.45;2.80;;;;;;;;;;4976627;28;20229;-70
2022/05/14 07:30:24;;;;;;;7.40;3.10;;;;;;;;;;4982035;28;20218;-71
2022/05/14 07:32:51;;;;;;;6.95;2.70;;;;;;;;;;4982420;28;21087;-70
2022/05/14 07:35:17;;;;;;;4.85;2.65;;;;;;;;;;4985159;28;20193;-71
2022/05/14 07:37:44;;;;;;;6.03;3.78;;;;;;;;;;4981975;28;20189;-70
2022/05/14 07:40:15;;;;;;;12.95;4.07;;;;;;;;;;4988930;28;20182;-69
2022/05/14 07:42:42;;;;;;;10.93;4.07;;;;;;;;;;4998471;28;20276;-69
2022/05/14 07:45:09;;;;;;;7.87;4.13;;;;;;;;;;4992512;28;20201;-69
2022/05/14 07:47:35;;;;;;;8.03;3.80;;;;;;;;;;4998872;28;20201;-69
2022/05/14 07:50:01;;;;;;;8.73;3.90;;;;;;;;;;4986873;28;20660;-70
2022/05/14 07:52:27;;;;;;;8.13;3.93;;;;;;;;;;4979048;28;20188;-69
2022/05/14 07:54:53;;;;;;;9.17;3.97;;;;;;;;;;4990541;28;20704;-69
2022/05/14 07:57:19;;;;;;;11.83;4.73;;;;;;;;;;4994395;28;20189;-69
2022/05/14 07:59:45;;;;;;;7.73;4.10;;;;;;;;;;4995429;28;20265;-69
2022/05/14 08:02:24;;;;;;;9.17;4.30;;;;;;;;;;4994333;28;20218;-69
2022/05/14 08:04:50;;;;;;;12.77;4.47;;;;;;;;;;4979960;28;20344;-70
2022/05/14 08:07:16;;;;;;;12.13;4.77;;;;;;;;;;4983690;28;20190;-68
2022/05/14 08:09:42;;;;;;;11.27;4.90;;;;;;;;;;4995175;28;20220;-68
2022/05/14 08:12:09;;;;;;;9.07;4.57;;;;;;;;;;4992973;28;20881;-69
2022/05/14 08:14:39;;;;;;;8.37;3.80;;;;;;;;;;4991902;28;20659;-69
2022/05/14 08:17:04;;;;;;;9.47;4.70;;;;;;;;;;4987851;28;20206;-69
2022/05/14 08:19:30;;;;;;;9.60;4.27;;;;;;;;;;4992263;28;20632;-68
2022/05/14 08:24:41;;;;;;;13.83;5.07;;;;;;;;;;4989070;28;20315;-70
2022/05/14 08:27:07;;;;;;;11.97;5.53;;;;;;;;;;4988191;28;20768;-69
2022/05/14 08:29:34;;;;;;;9.60;5.47;;;;;;;;;;4987115;28;20193;-69
2022/05/14 08:31:59;;;;;;;17.80;5.00;;;;;;;;;;4992100;28;20228;-69
2022/05/14 08:34:25;;;;;;;14.07;5.60;;;;;;;;;;4992052;28;20537;-69
2022/05/14 08:36:52;;;;;;;16.10;5.80;;;;;;;;;;4996323;28;20201;-69
2022/05/14 08:39:18;;;;;;;16.07;6.10;;;;;;;;;;4989729;28;20197;-69
2022/05/14 08:41:44;;;;;;;15.83;5.20;;;;;;;;;;4994481;28;20185;-69
2022/05/14 08:44:28;;;;;;;19.37;7.53;;;;;;;;;;4991062;28;20190;-70
2022/05/14 08:46:55;;;;;;;17.23;7.17;;;;;;;;;;4995445;28;20202;-70
2022/05/14 08:49:22;;;;;;;20.90;7.00;;;;;;;;;;4988851;28;20288;-71
2022/05/14 08:51:51;;;;;;;18.55;7.05;;;;;;;;;;4975334;28;20695;-70
2022/05/14 08:54:17;;;;;;;17.10;6.95;;;;;;;;;;4990441;28;20201;-69
2022/05/14 08:56:44;;;;;;;18.20;5.80;;;;;;;;;;4990741;28;20852;-71
2022/05/14 08:59:16;;;;;;;16.27;5.68;;;;;;;;;;4993352;28;20186;-71
2022/05/14 09:01:42;;;;;;;17.40;5.70;;;;;;;;;;4989971;28;20209;-70
2022/05/14 09:04:09;;;;;;;21.88;6.75;;;;;;;;;;4993385;28;20237;-70
2022/05/14 09:06:36;;;;;;;15.98;5.72;;;;;;;;;;4990127;28;20182;-69
2022/05/14 09:09:02;;;;;;;15.18;6.57;;;;;;;;;;4987409;28;20244;-70
2022/05/14 09:11:46;;;;;;;18.83;6.20;;;;;;;;;;4997216;28;20773;-70
2022/05/14 09:14:28;;;;;;;15.45;6.00;;;;;;;;;;4991729;28;20226;-70
2022/05/14 09:16:59;;;;;;;11.43;5.07;;;;;;;;;;4980709;28;20255;-69
2022/05/14 09:19:27;;;;;;;13.02;5.40;;;;;;;;;;4986645;28;20207;-70
2022/05/14 09:21:57;;;;;;;16.95;6.10;;;;;;;;;;4983190;28;20284;-71
2022/05/14 09:24:25;;;;;;;15.27;4.80;;;;;;;;;;4988965;28;20196;-70
2022/05/14 09:26:52;;;;;;;9.63;4.10;;;;;;;;;;4982744;28;20189;-70
2022/05/14 09:29:28;;;;;;;10.57;3.70;;;;;;;;;;4991414;28;20200;-70
2022/05/14 09:31:54;;;;;;;9.07;3.30;;;;;;;;;;4985590;28;20300;-70
2022/05/14 09:34:20;;;;;;;10.48;4.07;;;;;;;;;;4991811;28;20200;-70
2022/05/14 09:36:48;;;;;;;9.20;3.30;;;;;;;;;;4994847;28;20252;-71
2022/05/14 09:39:18;;;;;;;7.30;3.58;;;;;;;;;;4991179;28;20181;-70
2022/05/14 09:41:49;;;;;;;9.65;3.65;;;;;;;;;;4995535;28;20189;-70
2022/05/14 09:44:24;;;;;;;8.43;3.30;;;;;;;;;;4993409;28;20174;-70
2022/05/14 09:46:52;;;;;;;9.40;3.58;;;;;;;;;;4993095;28;20177;-71
2022/05/14 09:49:24;;;;;;;8.93;3.63;;;;;;;;;;4995974;28;20200;-73
2022/05/14 09:51:55;;;;;;;6.30;3.20;;;;;;;;;;4996266;28;25013;-70
2022/05/14 09:54:22;;;;;;;7.15;3.38;;;;;;;;;;4991857;28;20191;-71
2022/05/14 09:56:54;;;;;;;7.03;3.13;;;;;;;;;;5000719;28;20838;-71
2022/05/14 09:59:36;;;;;;;8.05;2.85;;;;;;;;;;4993140;28;20181;-70
2022/05/14 10:02:12;;;;;;;7.82;3.30;;;;;;;;;;4992947;28;20204;-71
2022/05/14 10:04:46;;;;;;;5.40;3.08;;;;;;;;;;4986010;28;20233;-70
2022/05/14 10:07:13;;;;;;;9.95;3.47;;;;;;;;;;4994153;28;20200;-71
2022/05/14 10:09:41;;;;;;;7.55;2.97;;;;;;;;;;4996890;28;20212;-70
2022/05/14 10:12:09;;;;;;;6.07;2.65;;;;;;;;;;4997681;28;20218;-70
2022/05/14 10:14:44;;;;;;;6.82;2.65;;;;;;;;;;4983894;28;20190;-70
2022/05/14 10:17:19;;;;;;;6.07;3.03;;;;;;;;;;4982081;28;20225;-70
2022/05/14 10:20:05;;;;;;;9.77;3.05;;;;;;;;;;4991813;28;20185;-70
2022/05/14 10:28:39;;;;;;;7.03;2.80;;;;;;;;;;4994464;28;20220;-70
2022/05/14 10:31:10;;;;;;;7.03;2.90;;;;;;;;;;4993728;28;20218;-70
2022/05/14 10:33:36;;;;;;;9.93;3.13;;;;;;;;;;4994277;28;20189;-70
2022/05/14 10:36:21;;;;;;;7.70;3.15;;;;;;;;;;4995633;28;20178;-71
2022/05/14 10:38:50;;;;;;;6.30;3.17;;;;;;;;;;4991999;28;21095;-70
2022/05/14 10:41:26;;;;;;;7.10;2.90;;;;;;;;;;4989167;28;20175;-70
2022/05/14 10:43:55;;;;;;;5.80;2.47;;;;;;;;;;4974612;28;20197;-70
2022/05/14 10:46:22;;;;;;;6.82;3.00;;;;;;;;;;4994014;28;20246;-70
2022/05/14 10:48:52;;;;;;;6.18;2.95;;;;;;;;;;4993245;28;20217;-70
2022/05/14 10:51:26;;;;;;;6.10;2.75;;;;;;;;;;4994106;28;20210;-71
2022/05/14 10:53:52;;;;;;;5.82;2.72;;;;;;;;;;4990067;28;20186;-71
2022/05/14 10:56:25;;;;;;;6.30;2.92;;;;;;;;;;4995847;28;20602;-70
2022/05/14 10:58:51;;;;;;;4.63;2.47;;;;;;;;;;4994824;28;20189;-70
2022/05/14 11:01:30;;;;;;;7.63;2.97;;;;;;;;;;4992221;28;20201;-70
2022/05/14 11:03:57;;;;;;;5.57;2.70;;;;;;;;;;4997677;28;20646;-71
2022/05/14 11:06:27;;;;;;;6.75;2.50;;;;;;;;;;4999082;28;20319;-69
2022/05/14 11:08:53;;;;;;;5.68;2.75;;;;;;;;;;4993382;28;20193;-70
2022/05/14 11:11:21;;;;;;;7.90;2.85;;;;;;;;;;4996354;28;20220;-71
2022/05/14 11:13:59;;;;;;;6.00;2.50;;;;;;;;;;4990996;28;20186;-70
2022/05/14 11:16:35;;;;;;;7.38;2.90;;;;;;;;;;4992214;28;20655;-70
2022/05/14 11:19:04;;;;;;;7.93;2.97;;;;;;;;;;4994212;28;20186;-70
2022/05/14 11:21:40;;;;;;;5.43;2.60;;;;;;;;;;4974052;28;20643;-69
2022/05/14 11:24:06;;;;;;;5.57;2.38;;;;;;;;;;5001073;28;20206;-70
2022/05/14 11:26:32;;;;;;;6.07;2.72;;;;;;;;;;4990100;28;20193;-70
2022/05/14 11:29:02;;;;;;;5.35;2.58;;;;;;;;;;4992177;28;20217;-70
2022/05/14 11:31:32;;;;;;;5.07;2.40;;;;;;;;;;4992059;28;20264;-72
2022/05/14 11:33:59;;;;;;;7.07;2.65;;;;;;;;;;4993265;28;20691;-70
2022/05/14 11:36:26;;;;;;;8.80;3.28;;;;;;;;;;4989098;28;20183;-76
2022/05/14 11:39:04;;;;;;;9.93;3.22;;;;;;;;;;4979799;28;20182;-74
2022/05/14 11:41:31;;;;;;;8.50;3.53;;;;;;;;;;4992574;28;20190;-75
2022/05/14 11:43:57;;;;;;;10.95;3.47;;;;;;;;;;4979739;28;20209;-75
2022/05/14 11:46:41;;;;;;;9.45;2.97;;;;;;;;;;4969300;28;20198;-74
2022/05/14 11:49:09;;;;;;;9.93;3.10;;;;;;;;;;4988562;28;20189;-75
2022/05/14 11:51:35;;;;;;;6.45;2.80;;;;;;;;;;4993420;28;20301;-75
2022/05/14 11:54:10;;;;;;;5.88;2.75;;;;;;;;;;4990758;28;20190;-74
2022/05/14 11:56:39;;;;;;;7.78;2.92;;;;;;;;;;4992037;28;20221;-74
2022/05/14 11:59:06;;;;;;;13.13;2.88;;;;;;;;;;4962703;28;20932;-76
2022/05/14 12:01:33;;;;;;;9.60;3.17;;;;;;;;;;4977378;28;20615;-74
2022/05/14 12:04:01;;;;;;;10.02;3.17;;;;;;;;;;4973120;28;21262;-76
2022/05/14 12:06:27;;;;;;;8.15;3.17;;;;;;;;;;4964676;28;20289;-76
2022/05/14 12:08:53;;;;;;;9.35;3.47;;;;;;;;;;4970752;28;20197;-75
2022/05/14 12:11:22;;;;;;;8.38;3.53;;;;;;;;;;4984344;28;20225;-75
2022/05/14 12:13:51;;;;;;;6.78;3.30;;;;;;;;;;4985687;28;20196;-75
2022/05/14 12:16:17;;;;;;;14.23;3.72;;;;;;;;;;4984145;28;20178;-75
2022/05/14 12:18:44;;;;;;;7.88;2.97;;;;;;;;;;4994151;28;20197;-75
2022/05/14 12:21:10;;;;;;;10.57;3.17;;;;;;;;;;4986946;28;20204;-75
2022/05/14 12:23:39;;;;;;;7.80;2.75;;;;;;;;;;4973980;28;20201;-75
2022/05/14 12:26:06;;;;;;;8.38;3.47;;;;;;;;;;4975120;28;21306;-75
2022/05/14 12:28:33;;;;;;;7.20;3.17;;;;;;;;;;4984857;28;20185;-75
2022/05/14 12:33:51;;;;;;;10.10;3.45;;;;;;;;;;4988741;28;20196;-75
2022/05/14 12:36:18;;;;;;;8.50;3.17;;;;;;;;;;4970066;28;20242;-76
2022/05/14 12:38:44;;;;;;;8.63;3.17;;;;;;;;;;4984837;28;20296;-76
2022/05/14 12:41:17;;;;;;;9.35;3.03;;;;;;;;;;4977126;28;20248;-76
2022/05/14 12:43:43;;;;;;;6.72;3.08;;;;;;;;;;4962081;28;20188;-75
2022/05/14 12:46:09;;;;;;;6.97;3.08;;;;;;;;;;4964258;28;20585;-76
2022/05/14 12:48:43;;;;;;;10.27;3.28;;;;;;;;;;4974785;28;20288;-76
2022/05/14 12:51:09;;;;;;;8.43;3.05;;;;;;;;;;4987162;28;20213;-75
2022/05/14 12:53:36;;;;;;;8.45;3.10;;;;;;;;;;4968767;28;20265;-76
2022/05/14 12:56:02;;;;;;;7.72;3.10;;;;;;;;;;4974155;28;20243;-75
2022/05/14 12:58:28;;;;;;;9.00;3.58;;;;;;;;;;4974450;28;20970;-76
2022/05/14 13:00:54;;;;;;;7.65;2.90;;;;;;;;;;4986864;28;20205;-75
2022/05/14 13:03:25;;;;;;;6.22;2.65;;;;;;;;;;4978771;28;20258;-76
2022/05/14 13:06:27;;;;;;;7.85;3.13;;;;;;;;;;4975473;28;20734;-74
2022/05/14 13:08:57;;;;;;;9.50;3.45;;;;;;;;;;4934392;28;20203;-76
2022/05/14 13:11:23;;;;;;;9.15;3.00;;;;;;;;;;4982906;28;20308;-77
2022/05/14 13:13:50;;;;;;;5.22;2.80;;;;;;;;;;4996464;28;20190;-75
2022/05/14 13:16:23;;;;;;;6.32;2.97;;;;;;;;;;4997973;28;20186;-75
2022/05/14 13:18:50;;;;;;;9.18;4.15;;;;;;;;;;4989481;28;20270;-78
2022/05/14 13:21:18;;;;;;;7.18;3.10;;;;;;;;;;4999973;28;20497;-77
2022/05/14 13:23:53;;;;;;;7.05;3.22;;;;;;;;;;4973144;28;20190;-76
2022/05/14 13:26:25;;;;;;;10.60;3.88;;;;;;;;;;4983153;28;20266;-78
2022/05/14 13:28:51;;;;;;;10.48;3.65;;;;;;;;;;4986161;28;20583;-76
2022/05/14 13:31:26;;;;;;;12.90;4.05;;;;;;;;;;4991876;28;20217;-75
2022/05/14 13:37:07;;;;;;;10.05;3.35;;;;;;;;;;4994276;28;20277;-77
2022/05/14 13:37:08;;;;;;;10.57;3.83;;;;;;;;;;4990129;28;20238;-76
2022/05/14 13:39:53;;;;;;;9.02;3.42;;;;;;;;;;4995649;28;20263;-75
2022/05/14 13:42:55;;;;;;;12.55;4.07;;;;;;;;;;4992845;28;20198;-76
2022/05/14 13:45:23;;;;;;;8.05;3.40;;;;;;;;;;4940326;28;20191;-76
2022/05/14 13:47:50;;;;;;;8.52;3.75;;;;;;;;;;4951031;28;21402;-76
2022/05/14 13:50:22;;;;;;;7.72;3.58;;;;;;;;;;4980779;28;20670;-76
2022/05/14 13:52:51;;;;;;;6.97;3.20;;;;;;;;;;4984522;28;20178;-75
2022/05/14 13:55:27;;;;;;;8.95;2.90;;;;;;;;;;4964391;28;20209;-75
2022/05/14 13:57:55;;;;;;;9.80;3.80;;;;;;;;;;4968347;28;20182;-75
2022/05/14 14:00:22;;;;;;;9.02;3.65;;;;;;;;;;4985869;28;20186;-75
2022/05/14 14:03:01;;;;;;;10.48;3.45;;;;;;;;;;4978897;28;20210;-75
2022/05/14 14:05:27;;;;;;;7.65;3.58;;;;;;;;;;4969533;28;20249;-75
2022/05/14 14:07:53;;;;;;;9.32;3.63;;;;;;;;;;4985540;28;26186;-75
2022/05/14 14:10:20;;;;;;;7.22;3.40;;;;;;;;;;4990812;28;20178;-75
2022/05/14 14:12:46;;;;;;;9.25;3.47;;;;;;;;;;4989952;28;20190;-75
2022/05/14 14:15:15;;;;;;;7.93;3.42;;;;;;;;;;4985640;28;20195;-75
2022/05/14 14:17:41;;;;;;;7.90;4.13;;;;;;;;;;4993696;28;20214;-75
2022/05/14 14:20:08;;;;;;;11.00;3.90;;;;;;;;;;4990617;28;20186;-75
2022/05/14 14:22:34;;;;;;;8.65;3.47;;;;;;;;;;4991595;28;20187;-76
2022/05/14 14:25:00;;;;;;;10.68;3.80;;;;;;;;;;4989057;28;20196;-76
2022/05/14 14:27:26;;;;;;;9.25;3.55;;;;;;;;;;4969887;28;20553;-75
2022/05/14 14:29:57;;;;;;;7.85;3.25;;;;;;;;;;4994884;28;20205;-76
2022/05/14 14:32:23;;;;;;;8.88;3.22;;;;;;;;;;4991203;28;20205;-75
2022/05/14 14:34:49;;;;;;;7.60;3.30;;;;;;;;;;4987134;28;21404;-76
2022/05/14 14:37:15;;;;;;;9.90;3.70;;;;;;;;;;4997767;28;20213;-75
2022/05/14 14:39:41;;;;;;;7.40;3.50;;;;;;;;;;4988530;28;20210;-76
2022/05/14 14:42:09;;;;;;;11.20;4.00;;;;;;;;;;4980417;28;20381;-75
2022/05/14 14:44:35;;;;;;;10.05;3.95;;;;;;;;;;4985032;28;20197;-75
2022/05/14 14:47:01;;;;;;;8.80;3.63;;;;;;;;;;4986616;28;20597;-74
2022/05/14 14:49:27;;;;;;;10.88;3.72;;;;;;;;;;4991806;28;21017;-76
2022/05/14 14:51:53;;;;;;;13.52;5.28;;;;;;;;;;4991949;28;20202;-74
2022/05/14 14:54:18;;;;;;;7.35;3.97;;;;;;;;;;4974762;28;20182;-74
2022/05/14 14:56:44;;;;;;;10.88;3.70;;;;;;;;;;4989340;28;20304;-75
2022/05/14 14:59:10;;;;;;;10.32;3.17;;;;;;;;;;4993377;28;20193;-76
2022/05/14 15:01:47;;;;;;;10.52;3.47;;;;;;;;;;4974681;28;20198;-75
2022/05/14 15:04:14;;;;;;;8.77;3.65;;;;;;;;;;4989392;28;20250;-75
2022/05/14 15:06:40;;;;;;;8.70;3.00;;;;;;;;;;4992668;28;20195;-76
2022/05/14 15:09:06;;;;;;;8.55;3.38;;;;;;;;;;4987444;28;20202;-76
2022/05/14 15:11:32;;;;;;;8.05;3.10;;;;;;;;;;4993209;28;20210;-75
2022/05/14 15:14:00;;;;;;;7.10;2.53;;;;;;;;;;4994751;28;20556;-75